Time;durP1;ratioP1;P1;durP2;ratioP2;P2;SDS_P1;SDS_P2;PMS_P1;PMS_P2;Temp;Humidity;BMP_temperature;BMP_pressure;BME280_temperature;BME280_humidity;BME280_pressure;Samples;Min_cycle;Max_cycle;Signal;HPM_P1;HPM_P2
2023/12/22 00:02:21;;;;;;;1999.90;999.90;;;6.40;99.90;;;;;;5046695;28;20446;-79
2023/12/22 00:04:46;;;;;;;1999.90;999.90;;;6.30;99.90;;;;;;5045115;28;20037;-82
2023/12/22 00:07:12;;;;;;;1999.90;999.90;;;6.20;99.90;;;;;;5047031;28;20115;-80
2023/12/22 00:09:37;;;;;;;1999.90;999.90;;;6.20;99.90;;;;;;5046414;28;20643;-82
2023/12/22 00:12:04;;;;;;;1999.90;999.90;;;6.10;99.90;;;;;;5045239;28;20029;-79
2023/12/22 00:14:29;;;;;;;1999.90;999.90;;;6.10;99.90;;;;;;5044163;28;20037;-77
2023/12/22 00:16:55;;;;;;;1999.90;999.90;;;6.20;99.90;;;;;;5044418;28;20048;-77
2023/12/22 00:19:21;;;;;;;1999.90;999.90;;;6.10;99.90;;;;;;5043343;28;20613;-81
2023/12/22 00:21:46;;;;;;;1999.90;999.90;;;6.30;99.90;;;;;;5045751;28;20032;-79
2023/12/22 00:24:12;;;;;;;1999.90;999.90;;;6.30;99.90;;;;;;5046520;28;20028;-79
2023/12/22 00:26:38;;;;;;;1999.90;999.90;;;6.40;99.90;;;;;;5047390;28;20052;-78
2023/12/22 00:29:03;;;;;;;1999.90;999.90;;;6.00;99.90;;;;;;5045039;28;20418;-80
2023/12/22 00:31:32;;;;;;;1999.90;999.90;;;6.00;99.90;;;;;;5045140;28;20442;-80
2023/12/22 00:33:57;;;;;;;1999.90;999.90;;;5.80;99.90;;;;;;5045600;28;20041;-77
2023/12/22 00:36:24;;;;;;;1999.90;999.90;;;5.90;99.90;;;;;;5044877;28;20490;-79
2023/12/22 00:38:50;;;;;;;1999.90;999.90;;;5.80;99.90;;;;;;5047035;28;20029;-77
2023/12/22 00:41:16;;;;;;;1999.90;999.90;;;5.90;99.90;;;;;;5045641;28;20025;-77
2023/12/22 00:43:41;;;;;;;1999.90;999.90;;;5.90;99.90;;;;;;5044935;28;20483;-75
2023/12/22 00:46:07;;;;;;;1999.90;999.90;;;5.90;99.90;;;;;;5045893;28;20029;-77
2023/12/22 00:48:33;;;;;;;1999.90;999.90;;;6.00;99.90;;;;;;5047281;28;20044;-77
2023/12/22 00:50:58;;;;;;;1999.90;999.90;;;5.90;99.90;;;;;;5045611;28;20033;-77
2023/12/22 00:53:24;;;;;;;1999.90;999.90;;;6.00;99.90;;;;;;5055906;28;20445;-77
2023/12/22 00:55:50;;;;;;;1999.90;999.90;;;6.00;99.90;;;;;;5045862;28;20064;-78
2023/12/22 00:58:15;;;;;;;1999.90;999.90;;;5.90;99.90;;;;;;5045282;28;20032;-76
2023/12/22 01:00:41;;;;;;;1999.90;999.90;;;6.00;99.90;;;;;;5045908;28;20029;-80
2023/12/22 01:03:06;;;;;;;1999.90;999.90;;;5.90;99.90;;;;;;5042773;28;20034;-77
2023/12/22 01:05:35;;;;;;;1999.90;999.90;;;6.00;99.90;;;;;;5043146;28;20033;-78
2023/12/22 01:08:00;;;;;;;1999.90;999.90;;;5.90;99.90;;;;;;5044002;28;20112;-78
2023/12/22 01:10:26;;;;;;;1999.90;999.90;;;5.90;99.90;;;;;;5044547;28;20477;-77
2023/12/22 01:12:51;;;;;;;1999.90;999.90;;;6.10;99.90;;;;;;5045984;28;20048;-77
2023/12/22 01:15:17;;;;;;;1999.90;999.90;;;6.10;99.90;;;;;;5040721;28;20044;-79
2023/12/22 01:17:43;;;;;;;1999.90;999.90;;;5.90;99.90;;;;;;5042313;28;20034;-77
2023/12/22 01:20:09;;;;;;;1999.90;999.90;;;5.80;99.90;;;;;;5044558;28;20557;-78
2023/12/22 01:22:38;;;;;;;1999.90;999.90;;;5.60;99.90;;;;;;5042671;28;20039;-78
2023/12/22 01:25:04;;;;;;;1999.90;999.90;;;5.60;99.90;;;;;;5044553;28;20029;-77
2023/12/22 01:27:30;;;;;;;1999.90;999.90;;;5.70;99.90;;;;;;5046767;28;20846;-77
2023/12/22 01:29:56;;;;;;;1999.90;999.90;;;5.60;99.90;;;;;;5055863;28;20788;-79
2023/12/22 01:32:22;;;;;;;1999.90;999.90;;;5.60;99.90;;;;;;5043324;28;20033;-78
2023/12/22 01:34:47;;;;;;;1999.90;999.90;;;5.50;99.90;;;;;;5044914;28;20090;-76
2023/12/22 01:37:14;;;;;;;1999.90;999.90;;;5.50;99.90;;;;;;5027951;28;20028;-78
2023/12/22 01:39:39;;;;;;;1999.90;999.90;;;5.70;99.90;;;;;;5043976;28;20021;-76
2023/12/22 01:42:05;;;;;;;1999.90;999.90;;;5.70;99.90;;;;;;5042702;28;20040;-76
2023/12/22 01:44:31;;;;;;;1999.90;999.90;;;5.70;99.90;;;;;;5043439;28;20052;-79
2023/12/22 01:46:57;;;;;;;1999.90;999.90;;;5.60;99.90;;;;;;5044979;28;20029;-78
2023/12/22 01:49:23;;;;;;;1999.90;999.90;;;5.50;99.90;;;;;;5041191;28;20053;-77
2023/12/22 01:51:52;;;;;;;1999.90;999.90;;;5.50;99.90;;;;;;5044530;28;20037;-77
2023/12/22 01:54:18;;;;;;;1999.90;999.90;;;5.50;99.90;;;;;;5043496;28;20040;-79
2023/12/22 01:56:45;;;;;;;1999.90;999.90;;;5.60;99.90;;;;;;5042842;28;20029;-78
2023/12/22 01:59:11;;;;;;;1999.90;999.90;;;5.60;99.90;;;;;;5043586;28;20467;-80
2023/12/22 02:01:38;;;;;;;1999.90;999.90;;;5.40;99.90;;;;;;5040641;28;20061;-76
2023/12/22 02:04:05;;;;;;;1999.90;999.90;;;5.50;99.90;;;;;;5042149;28;20041;-78
2023/12/22 02:06:31;;;;;;;1999.90;999.90;;;5.40;99.90;;;;;;5042540;28;20028;-76
2023/12/22 02:08:58;;;;;;;1999.90;999.90;;;5.40;99.90;;;;;;5041958;28;20021;-78
2023/12/22 02:11:23;;;;;;;1999.90;999.90;;;5.30;99.90;;;;;;5043675;28;20029;-78
2023/12/22 02:13:49;;;;;;;1999.90;999.90;;;5.30;99.90;;;;;;5027459;28;20036;-81
2023/12/22 02:16:42;;;;;;;1999.90;999.90;;;5.30;99.90;;;;;;5027787;28;20306;-79
2023/12/22 02:19:42;;;;;;;1999.90;999.90;;;5.20;99.90;;;;;;5043519;28;21467;-80
2023/12/22 02:22:09;;;;;;;1999.90;999.90;;;5.20;99.90;;;;;;5045896;28;20029;-79
2023/12/22 02:24:34;;;;;;;1999.90;999.90;;;5.20;99.90;;;;;;5047925;28;20029;-82
2023/12/22 02:27:29;;;;;;;1999.90;999.90;;;5.30;99.90;;;;;;5047515;28;20372;-79
2023/12/22 02:30:01;;;;;;;1999.90;999.90;;;5.20;99.90;;;;;;5046464;28;20037;-79
2023/12/22 02:32:38;;;;;;;1999.90;999.90;;;5.40;99.90;;;;;;5048147;28;20029;-79
2023/12/22 02:35:10;;;;;;;1999.90;999.90;;;5.30;99.90;;;;;;5044481;28;20069;-82
2023/12/22 02:37:37;;;;;;;1999.90;999.90;;;5.30;99.90;;;;;;5044725;28;20045;-81
2023/12/22 02:40:07;;;;;;;1999.90;999.90;;;5.30;99.90;;;;;;5046662;28;20061;-79
2023/12/22 02:42:34;;;;;;;1999.90;999.90;;;5.00;99.90;;;;;;5046695;28;20061;-80
2023/12/22 02:45:00;;;;;;;1999.90;999.90;;;5.10;99.90;;;;;;5047024;28;20068;-77
2023/12/22 02:47:29;;;;;;;1999.90;999.90;;;5.10;99.90;;;;;;5047964;28;20514;-77
2023/12/22 02:49:55;;;;;;;1999.90;999.90;;;5.20;99.90;;;;;;5047633;28;20779;-77
2023/12/22 02:52:20;;;;;;;1999.90;999.90;;;5.10;99.90;;;;;;5047213;28;20112;-79
2023/12/22 02:54:47;;;;;;;1999.90;999.90;;;5.00;99.90;;;;;;5048932;28;20648;-77
2023/12/22 02:57:13;;;;;;;1999.90;999.90;;;5.00;99.90;;;;;;5028114;28;20122;-78
2023/12/22 02:59:39;;;;;;;1999.90;999.90;;;5.10;99.90;;;;;;5047967;28;20040;-78
2023/12/22 03:02:04;;;;;;;1999.90;999.90;;;5.10;99.90;;;;;;5045337;28;20076;-77
2023/12/22 03:04:30;;;;;;;1999.90;999.90;;;5.10;99.90;;;;;;5048932;28;20437;-81
2023/12/22 03:06:56;;;;;;;1999.90;999.90;;;5.10;99.90;;;;;;5045507;28;20072;-79
2023/12/22 03:09:21;;;;;;;1999.90;999.90;;;5.10;99.90;;;;;;5030508;28;20040;-77
2023/12/22 03:11:48;;;;;;;1999.90;999.90;;;5.00;99.90;;;;;;5044870;28;20033;-83
2023/12/22 03:14:14;;;;;;;1999.90;999.90;;;5.00;99.90;;;;;;5045665;28;20041;-79
2023/12/22 03:16:40;;;;;;;1999.90;999.90;;;5.00;99.90;;;;;;5045526;28;20037;-80
2023/12/22 03:19:07;;;;;;;1999.90;999.90;;;5.00;99.90;;;;;;5043253;28;20064;-78
2023/12/22 03:21:32;;;;;;;1999.90;999.90;;;4.90;99.90;;;;;;5048018;28;20098;-77
2023/12/22 03:23:58;;;;;;;1999.90;999.90;;;4.90;99.90;;;;;;5045731;28;20037;-79
2023/12/22 03:26:27;;;;;;;1999.90;999.90;;;4.90;99.90;;;;;;5045780;28;20526;-79
2023/12/22 03:28:53;;;;;;;1999.90;999.90;;;4.90;99.90;;;;;;5047549;28;20102;-79
2023/12/22 03:31:18;;;;;;;1999.90;999.90;;;4.80;99.90;;;;;;5047064;28;20494;-77
2023/12/22 03:33:44;;;;;;;1999.90;999.90;;;4.80;99.90;;;;;;5046670;28;20540;-77
2023/12/22 03:36:10;;;;;;;1999.90;999.90;;;4.80;99.90;;;;;;5046075;28;20052;-79
2023/12/22 03:38:35;;;;;;;1999.90;999.90;;;4.90;99.90;;;;;;5044926;28;20095;-79
2023/12/22 03:41:01;;;;;;;1999.90;999.90;;;4.90;99.90;;;;;;5030119;28;20172;-77
2023/12/22 03:43:26;;;;;;;1999.90;999.90;;;4.90;99.90;;;;;;5044796;28;20114;-77
2023/12/22 03:45:52;;;;;;;1999.90;999.90;;;4.90;99.90;;;;;;5046568;28;20037;-77
2023/12/22 03:48:18;;;;;;;1999.90;999.90;;;4.90;99.90;;;;;;5047382;28;20494;-75
2023/12/22 03:50:46;;;;;;;1999.90;999.90;;;4.90;99.90;;;;;;5046552;28;20651;-78
2023/12/22 03:53:12;;;;;;;1999.90;999.90;;;4.80;99.90;;;;;;5047363;28;20040;-77
2023/12/22 03:55:37;;;;;;;1999.90;999.90;;;4.50;99.90;;;;;;5044921;28;20037;-77
2023/12/22 03:58:04;;;;;;;1999.90;999.90;;;4.40;99.90;;;;;;5045262;28;20040;-77
2023/12/22 04:00:30;;;;;;;1999.90;999.90;;;4.40;99.90;;;;;;5045811;28;20056;-77
2023/12/22 04:02:56;;;;;;;1999.90;999.90;;;4.20;99.90;;;;;;5043602;28;20029;-77
2023/12/22 04:05:22;;;;;;;1999.90;999.90;;;4.20;99.90;;;;;;5045209;28;20560;-77
2023/12/22 04:07:47;;;;;;;1999.90;999.90;;;4.10;99.90;;;;;;5045494;28;20082;-76
2023/12/22 04:10:15;;;;;;;1999.90;999.90;;;4.10;99.90;;;;;;5044174;28;20159;-77
2023/12/22 04:12:41;;;;;;;1999.90;999.90;;;4.10;99.90;;;;;;5045624;28;20044;-78
2023/12/22 04:15:07;;;;;;;1999.90;999.90;;;4.20;99.90;;;;;;5046304;28;20095;-79
2023/12/22 04:17:33;;;;;;;1999.90;999.90;;;4.20;99.90;;;;;;5047823;28;20120;-77
2023/12/22 04:19:58;;;;;;;1999.90;999.90;;;4.30;99.90;;;;;;5045864;28;20112;-79
2023/12/22 04:22:24;;;;;;;1999.90;999.90;;;4.30;99.90;;;;;;5045468;28;20041;-79
2023/12/22 04:24:50;;;;;;;1999.90;999.90;;;4.30;99.90;;;;;;5045780;28;20037;-80
2023/12/22 04:27:15;;;;;;;1999.90;999.90;;;4.30;99.90;;;;;;5041445;28;20504;-79
2023/12/22 04:29:41;;;;;;;1999.90;999.90;;;4.30;99.90;;;;;;5044360;28;20507;-81
2023/12/22 04:32:09;;;;;;;1999.90;999.90;;;4.30;99.90;;;;;;5045182;28;20498;-80
2023/12/22 04:34:35;;;;;;;1999.90;999.90;;;4.40;99.90;;;;;;5044659;28;20624;-80
2023/12/22 04:37:01;;;;;;;1999.90;999.90;;;4.40;99.90;;;;;;5043071;28;20115;-81
2023/12/22 04:39:26;;;;;;;1999.90;999.90;;;4.40;99.90;;;;;;5046418;28;20064;-78
2023/12/22 04:41:52;;;;;;;1999.90;999.90;;;4.40;99.90;;;;;;5044417;28;20060;-78
2023/12/22 04:44:18;;;;;;;1999.90;999.90;;;4.40;99.90;;;;;;5028757;28;20064;-78
2023/12/22 04:46:43;;;;;;;1999.90;999.90;;;4.40;99.90;;;;;;5043102;28;20395;-80
2023/12/22 04:49:09;;;;;;;1999.90;999.90;;;4.50;99.90;;;;;;5043559;28;20064;-77
2023/12/22 04:51:35;;;;;;;1999.90;999.90;;;4.50;99.90;;;;;;5045567;28;20064;-80
2023/12/22 04:54:00;;;;;;;1999.90;999.90;;;4.60;99.90;;;;;;5042786;28;20067;-81
2023/12/22 04:56:26;;;;;;;1999.90;999.90;;;4.70;99.90;;;;;;5043150;28;20124;-77
2023/12/22 04:58:52;;;;;;;1999.90;999.90;;;4.60;99.90;;;;;;5041054;28;20061;-80
2023/12/22 05:01:18;;;;;;;1999.90;999.90;;;4.80;99.90;;;;;;5044388;28;20106;-80
2023/12/22 05:03:44;;;;;;;1999.90;999.90;;;4.80;99.90;;;;;;5044664;28;20063;-80
2023/12/22 05:06:09;;;;;;;1999.90;999.90;;;4.70;99.90;;;;;;5044016;28;21848;-82
2023/12/22 05:08:35;;;;;;;1999.90;999.90;;;4.80;99.90;;;;;;5047152;28;20437;-80
2023/12/22 05:11:00;;;;;;;1999.90;999.90;;;4.70;99.90;;;;;;5045421;28;20033;-79
2023/12/22 05:13:26;;;;;;;1999.90;999.90;;;4.70;99.90;;;;;;5045477;28;20043;-78
2023/12/22 05:15:52;;;;;;;1999.90;999.90;;;5.00;99.90;;;;;;5044972;28;20040;-78
2023/12/22 05:18:18;;;;;;;1999.90;999.90;;;5.00;99.90;;;;;;5043937;28;20142;-78
2023/12/22 05:20:43;;;;;;;1999.90;999.90;;;4.80;99.90;;;;;;5044391;28;20029;-79
2023/12/22 05:23:09;;;;;;;1999.90;999.90;;;4.80;99.90;;;;;;5044829;28;20036;-81
2023/12/22 05:25:34;;;;;;;1999.90;999.90;;;4.70;99.90;;;;;;5045833;28;20086;-79
2023/12/22 05:28:00;;;;;;;1999.90;999.90;;;4.70;99.90;;;;;;5044355;28;20087;-81
2023/12/22 05:30:26;;;;;;;1999.90;999.90;;;4.90;99.90;;;;;;5028997;28;20053;-77
2023/12/22 05:32:51;;;;;;;1999.90;999.90;;;4.80;99.90;;;;;;5046654;28;20052;-77
2023/12/22 05:35:17;;;;;;;1999.90;999.90;;;4.70;99.90;;;;;;5045423;28;20073;-80
2023/12/22 05:37:43;;;;;;;1999.90;999.90;;;4.60;99.90;;;;;;5028186;28;20048;-78
2023/12/22 05:40:09;;;;;;;1999.90;999.90;;;4.40;99.90;;;;;;5044624;28;20036;-77
2023/12/22 05:42:35;;;;;;;1999.90;999.90;;;4.50;99.90;;;;;;5044231;28;20402;-78
2023/12/22 05:45:01;;;;;;;1999.90;999.90;;;4.40;99.90;;;;;;5046080;28;20033;-79
2023/12/22 05:47:26;;;;;;;1999.90;999.90;;;4.40;99.90;;;;;;5040774;28;20024;-82
2023/12/22 05:49:52;;;;;;;1999.90;999.90;;;4.40;99.90;;;;;;5045563;28;20049;-77
2023/12/22 05:52:18;;;;;;;1999.90;999.90;;;4.40;99.90;;;;;;5043192;28;20083;-78
2023/12/22 05:54:44;;;;;;;1999.90;999.90;;;4.30;99.90;;;;;;5045901;28;20678;-78
2023/12/22 05:57:09;;;;;;;1999.90;999.90;;;4.30;99.90;;;;;;5046116;28;20040;-77
2023/12/22 05:59:35;;;;;;;1999.90;999.90;;;4.40;99.90;;;;;;5031327;28;20033;-79
2023/12/22 06:02:02;;;;;;;1999.90;999.90;;;4.30;99.90;;;;;;5056886;28;20467;-79
2023/12/22 06:04:31;;;;;;;1999.90;999.90;;;4.40;99.90;;;;;;5046715;28;20041;-82
2023/12/22 06:06:57;;;;;;;1999.90;999.90;;;4.40;99.90;;;;;;5046858;28;20501;-82
2023/12/22 06:09:22;;;;;;;1999.90;999.90;;;4.40;99.90;;;;;;5044467;28;20070;-77
2023/12/22 06:11:48;;;;;;;1999.90;999.90;;;4.40;99.90;;;;;;5045634;28;20395;-81
2023/12/22 06:14:14;;;;;;;1999.90;999.90;;;4.40;99.90;;;;;;5044927;28;20079;-79
2023/12/22 06:16:40;;;;;;;1999.90;999.90;;;4.40;99.90;;;;;;5060230;28;20120;-82
2023/12/22 06:19:06;;;;;;;1999.90;999.90;;;4.40;99.90;;;;;;5047222;28;20035;-78
2023/12/22 06:21:32;;;;;;;1999.90;999.90;;;4.40;99.90;;;;;;5046656;28;20036;-80
2023/12/22 06:23:58;;;;;;;1999.90;999.90;;;4.40;99.90;;;;;;5048755;28;20025;-81
2023/12/22 06:26:23;;;;;;;1999.90;999.90;;;4.40;99.90;;;;;;5045850;28;20028;-81
2023/12/22 06:28:49;;;;;;;1999.90;999.90;;;4.40;99.90;;;;;;5045259;28;20060;-76
2023/12/22 06:31:22;;;;;;;1999.90;999.90;;;4.50;99.90;;;;;;5046829;28;20500;-76
2023/12/22 06:33:49;;;;;;;1999.90;999.90;;;4.60;99.90;;;;;;5046953;28;20017;-79
2023/12/22 06:36:33;;;;;;;1999.90;999.90;;;4.70;99.90;;;;;;5046817;28;20041;-81
2023/12/22 06:39:00;;;;;;;1999.90;999.90;;;4.70;99.90;;;;;;5047197;28;20033;-80
2023/12/22 06:41:47;;;;;;;1999.90;999.90;;;4.60;99.90;;;;;;5042800;28;20858;-89
2023/12/22 06:44:13;;;;;;;1999.90;999.90;;;4.60;99.90;;;;;;5044953;28;20025;-86
2023/12/22 06:46:39;;;;;;;1999.90;999.90;;;4.50;99.90;;;;;;5047130;28;20033;-87
2023/12/22 06:49:05;;;;;;;1999.90;999.90;;;4.50;99.90;;;;;;5044886;28;20045;-87
2023/12/22 06:51:35;;;;;;;1999.90;999.90;;;4.60;99.90;;;;;;5031306;28;20056;-83
2023/12/22 06:54:02;;;;;;;1999.90;999.90;;;4.70;99.90;;;;;;5048295;28;20033;-86
2023/12/22 06:56:30;;;;;;;1999.90;999.90;;;4.60;99.90;;;;;;5048901;28;20041;-85
2023/12/22 06:58:57;;;;;;;1999.90;999.90;;;4.60;99.90;;;;;;5047575;28;20068;-85
2023/12/22 07:01:29;;;;;;;1999.90;999.90;;;4.70;99.90;;;;;;5048639;28;20036;-85
2023/12/22 07:03:56;;;;;;;1999.90;999.90;;;4.70;99.90;;;;;;5048449;28;20025;-85
2023/12/22 07:06:23;;;;;;;1999.90;999.90;;;4.60;99.90;;;;;;5047262;28;20033;-84
2023/12/22 07:09:16;;;;;;;1999.90;999.90;;;4.70;99.90;;;;;;5045055;28;20029;-85
2023/12/22 07:11:58;;;;;;;1999.90;999.90;;;4.70;99.90;;;;;;5047192;28;20713;-87
2023/12/22 07:14:25;;;;;;;1999.90;999.90;;;4.70;99.90;;;;;;5047518;28;20044;-84
2023/12/22 07:16:52;;;;;;;1999.90;999.90;;;4.70;99.90;;;;;;5031076;28;20033;-82
2023/12/22 07:19:18;;;;;;;1999.90;999.90;;;4.70;99.90;;;;;;5028608;28;20287;-84
2023/12/22 07:21:43;;;;;;;1999.90;999.90;;;4.70;99.90;;;;;;5048288;28;20017;-82
2023/12/22 07:24:10;;;;;;;1999.90;999.90;;;4.60;99.90;;;;;;5044512;28;20029;-85
2023/12/22 07:26:36;;;;;;;1999.90;999.90;;;4.70;99.90;;;;;;5046029;28;20529;-81
2023/12/22 07:29:01;;;;;;;1999.90;999.90;;;4.60;99.90;;;;;;5047518;28;20034;-81
2023/12/22 07:31:27;;;;;;;1999.90;999.90;;;4.60;99.90;;;;;;5045465;28;20048;-81
2023/12/22 07:33:53;;;;;;;1999.90;999.90;;;4.60;99.90;;;;;;5046988;28;20107;-82
2023/12/22 07:36:18;;;;;;;1999.90;999.90;;;4.50;99.90;;;;;;5044238;28;20037;-86
2023/12/22 07:38:44;;;;;;;1999.90;999.90;;;4.50;99.90;;;;;;5046453;28;20523;-82
2023/12/22 07:41:10;;;;;;;1999.90;999.90;;;4.50;99.90;;;;;;5045907;28;20033;-83
2023/12/22 07:43:38;;;;;;;1999.90;999.90;;;4.40;99.90;;;;;;5048962;28;20037;-83
2023/12/22 07:46:04;;;;;;;1999.90;999.90;;;4.40;99.90;;;;;;5042359;28;20442;-85
2023/12/22 07:48:29;;;;;;;1999.90;999.90;;;4.40;99.90;;;;;;5060739;28;20032;-82
2023/12/22 07:50:55;;;;;;;1999.90;999.90;;;4.40;99.90;;;;;;5030441;28;20088;-81
2023/12/22 07:53:21;;;;;;;1999.90;999.90;;;4.30;99.90;;;;;;5048648;28;20110;-84
2023/12/22 07:55:48;;;;;;;1999.90;999.90;;;4.30;99.90;;;;;;5030248;28;20187;-83
2023/12/22 07:58:13;;;;;;;1999.90;999.90;;;4.30;99.90;;;;;;5047179;28;20052;-84
2023/12/22 08:00:42;;;;;;;1999.90;999.90;;;4.40;99.90;;;;;;5043614;28;20076;-83
2023/12/22 08:03:09;;;;;;;1999.90;999.90;;;4.40;99.90;;;;;;5044073;28;20049;-83
2023/12/22 08:05:35;;;;;;;1999.90;999.90;;;4.40;99.90;;;;;;5046464;28;20036;-84
2023/12/22 08:08:00;;;;;;;1999.90;999.90;;;4.40;99.90;;;;;;5045668;28;20518;-80
2023/12/22 08:10:27;;;;;;;1999.90;999.90;;;4.50;99.90;;;;;;5045942;28;20045;-82
2023/12/22 08:12:54;;;;;;;1999.90;999.90;;;4.50;99.90;;;;;;5046269;28;20029;-83
2023/12/22 08:15:20;;;;;;;1999.90;999.90;;;4.40;99.90;;;;;;5048325;28;20384;-82
2023/12/22 08:17:47;;;;;;;1999.90;999.90;;;4.40;99.90;;;;;;5044851;28;20035;-81
2023/12/22 08:20:20;;;;;;;1999.90;999.90;;;4.40;99.90;;;;;;5028739;28;20043;-82
2023/12/22 08:22:50;;;;;;;1999.90;999.90;;;4.40;99.90;;;;;;5043344;28;20028;-84
2023/12/22 08:25:18;;;;;;;;;;;4.40;99.90;;;;;;5045708;28;20102;-80
2023/12/22 08:27:47;;;;;;;1999.90;999.90;;;4.50;99.90;;;;;;5043276;28;19940;-85
2023/12/22 08:30:12;;;;;;;1999.90;999.90;;;4.50;99.90;;;;;;5046523;28;20032;-86
2023/12/22 08:32:41;;;;;;;1999.90;999.90;;;4.50;99.90;;;;;;5046040;28;20415;-84
2023/12/22 08:35:08;;;;;;;1999.90;999.90;;;4.50;99.90;;;;;;5045380;28;20036;-84
2023/12/22 08:37:37;;;;;;;1999.90;999.90;;;4.50;99.90;;;;;;5045170;28;20040;-83
2023/12/22 08:40:03;;;;;;;1999.90;999.90;;;4.50;99.90;;;;;;5043929;28;20048;-81
2023/12/22 08:42:30;;;;;;;1999.90;999.90;;;4.50;99.90;;;;;;5044310;28;20591;-83
2023/12/22 08:44:56;;;;;;;1999.90;999.90;;;4.50;99.90;;;;;;5056661;28;20036;-83
2023/12/22 08:47:21;;;;;;;1999.90;999.90;;;4.60;99.90;;;;;;5045750;28;20033;-83
2023/12/22 08:49:47;;;;;;;1999.90;999.90;;;4.50;99.90;;;;;;5028762;28;20059;-81
2023/12/22 08:52:13;;;;;;;1999.90;999.90;;;4.60;99.90;;;;;;5045445;28;20388;-78
2023/12/22 08:54:40;;;;;;;1999.90;999.90;;;4.60;99.90;;;;;;5045467;28;20032;-81
2023/12/22 08:57:06;;;;;;;1999.90;999.90;;;4.60;99.90;;;;;;5043374;28;20043;-82
2023/12/22 08:59:31;;;;;;;1999.90;999.90;;;4.70;99.90;;;;;;5043901;28;20037;-82
2023/12/22 09:01:57;;;;;;;1999.90;999.90;;;4.60;99.90;;;;;;5045427;28;20037;-82
2023/12/22 09:04:23;;;;;;;1999.90;999.90;;;4.70;99.90;;;;;;5029652;28;20048;-82
2023/12/22 09:06:50;;;;;;;1999.90;999.90;;;4.80;99.90;;;;;;5047737;28;20017;-83
2023/12/22 09:09:16;;;;;;;1999.90;999.90;;;4.70;99.90;;;;;;5044792;28;20032;-81
2023/12/22 09:11:42;;;;;;;1999.90;999.90;;;4.80;99.90;;;;;;5047857;28;20044;-82
2023/12/22 09:14:09;;;;;;;1999.90;999.90;;;4.90;99.90;;;;;;5045935;28;20375;-85
2023/12/22 09:16:35;;;;;;;1999.90;999.90;;;4.90;99.90;;;;;;5023421;28;20552;-84
2023/12/22 09:19:03;;;;;;;1999.90;999.90;;;4.90;99.90;;;;;;5047919;28;20032;-81
2023/12/22 09:21:30;;;;;;;1999.90;999.90;;;4.90;99.90;;;;;;5045299;28;20048;-85
2023/12/22 09:23:56;;;;;;;1999.90;999.90;;;4.90;99.90;;;;;;5046582;28;20021;-83
2023/12/22 09:26:21;;;;;;;1999.90;999.90;;;5.00;99.90;;;;;;5044587;28;20059;-82
2023/12/22 09:28:47;;;;;;;1999.90;999.90;;;4.90;99.90;;;;;;5046611;28;20025;-83
2023/12/22 09:31:13;;;;;;;1999.90;999.90;;;4.90;99.90;;;;;;5048539;28;20041;-81
2023/12/22 09:33:41;;;;;;;1999.90;999.90;;;5.00;99.90;;;;;;5050613;28;20037;-81
2023/12/22 09:36:07;;;;;;;1999.90;999.90;;;5.10;99.90;;;;;;5047939;28;20033;-84
2023/12/22 09:38:33;;;;;;;1999.90;999.90;;;5.10;99.90;;;;;;5051260;28;20028;-81
2023/12/22 09:41:00;;;;;;;1999.90;999.90;;;5.30;99.90;;;;;;5031849;28;20033;-82
2023/12/22 09:43:26;;;;;;;1999.90;999.90;;;5.40;99.90;;;;;;5049970;28;20064;-81
2023/12/22 09:45:52;;;;;;;1999.90;999.90;;;5.40;99.90;;;;;;5049207;28;20475;-83
2023/12/22 09:48:27;;;;;;;1999.90;999.90;;;5.50;99.90;;;;;;5047903;28;20835;-82
2023/12/22 09:50:56;;;;;;;1999.90;999.90;;;5.50;99.90;;;;;;5046782;28;20096;-84
2023/12/22 09:53:26;;;;;;;1999.90;999.90;;;5.50;99.90;;;;;;5047803;28;20048;-84
2023/12/22 09:55:53;;;;;;;1999.90;999.90;;;5.50;99.20;;;;;;5048961;28;20053;-82
2023/12/22 09:58:19;;;;;;;1999.90;999.90;;;5.50;98.00;;;;;;5047708;28;20025;-85
2023/12/22 10:00:45;;;;;;;1999.90;999.90;;;5.50;97.30;;;;;;5048253;28;20066;-83
2023/12/22 10:03:12;;;;;;;1999.90;999.90;;;5.50;96.90;;;;;;5048634;28;20025;-81
2023/12/22 10:05:40;;;;;;;1999.90;999.90;;;5.60;96.70;;;;;;5050531;28;20390;-80
2023/12/22 10:08:10;;;;;;;1999.90;999.90;;;5.50;97.30;;;;;;5048233;28;20037;-80
2023/12/22 10:10:37;;;;;;;1999.90;999.90;;;5.50;96.30;;;;;;5049371;28;20017;-82
2023/12/22 10:13:07;;;;;;;1999.90;999.90;;;5.50;96.70;;;;;;5049513;28;20249;-80
2023/12/22 10:15:33;;;;;;;1999.90;999.90;;;5.50;96.60;;;;;;5049993;28;20036;-80
2023/12/22 10:18:01;;;;;;;1999.90;999.90;;;5.50;96.80;;;;;;5047497;28;20044;-82
2023/12/22 10:20:27;;;;;;;1999.90;999.90;;;5.50;96.00;;;;;;5048130;28;20103;-81
2023/12/22 10:22:52;;;;;;;1999.90;999.90;;;5.60;96.70;;;;;;5049713;28;20063;-79
2023/12/22 10:25:29;;;;;;;1999.90;999.90;;;5.70;96.20;;;;;;5049570;28;20174;-82
2023/12/22 10:27:55;;;;;;;1999.90;999.90;;;5.70;96.20;;;;;;5049985;28;20028;-81
2023/12/22 10:30:22;;;;;;;1999.90;999.90;;;5.60;96.20;;;;;;5047905;28;20033;-81
2023/12/22 10:32:49;;;;;;;1999.90;999.90;;;5.60;96.90;;;;;;5048495;28;20051;-82
2023/12/22 10:35:15;;;;;;;1999.90;999.90;;;5.60;97.00;;;;;;5047871;28;20033;-80
2023/12/22 10:37:41;;;;;;;1999.90;999.90;;;5.60;97.20;;;;;;5043887;28;20036;-80
2023/12/22 10:40:09;;;;;;;1999.90;999.90;;;5.60;97.10;;;;;;5044890;28;20573;-84
2023/12/22 10:42:35;;;;;;;1999.90;999.90;;;5.60;97.10;;;;;;5045932;28;20071;-80
2023/12/22 10:45:01;;;;;;;1999.90;999.90;;;5.60;96.70;;;;;;5047724;28;20033;-80
2023/12/22 10:47:29;;;;;;;1999.90;999.90;;;5.60;95.80;;;;;;5047571;28;20523;-81
2023/12/22 10:49:54;;;;;;;1999.90;999.90;;;5.70;96.50;;;;;;5049379;28;20056;-80
2023/12/22 10:52:23;;;;;;;1999.90;999.90;;;5.60;96.30;;;;;;5048207;28;20055;-82
2023/12/22 10:54:49;;;;;;;1999.90;999.90;;;5.70;95.30;;;;;;5049419;28;20036;-81
2023/12/22 10:57:18;;;;;;;1999.90;999.90;;;5.70;96.20;;;;;;5047791;28;20079;-81
2023/12/22 10:59:47;;;;;;;1999.90;999.90;;;5.70;95.60;;;;;;5045014;28;20036;-83
2023/12/22 11:02:17;;;;;;;1999.90;999.90;;;5.80;95.10;;;;;;5055940;28;20109;-80
2023/12/22 11:05:18;;;;;;;1999.90;999.90;;;5.80;95.40;;;;;;5047587;28;20029;-81
2023/12/22 11:07:49;;;;;;;1999.90;999.90;;;5.90;95.30;;;;;;5008100;28;20072;-81
2023/12/22 11:10:19;;;;;;;1999.90;999.90;;;5.80;94.30;;;;;;5014457;28;20063;-83
2023/12/22 11:12:48;;;;;;;1999.90;999.90;;;5.80;94.10;;;;;;5030416;28;20065;-80
2023/12/22 11:15:16;;;;;;;1999.90;999.90;;;5.80;94.40;;;;;;5045814;28;20073;-82
2023/12/22 11:17:43;;;;;;;1999.90;999.90;;;5.80;94.20;;;;;;5045818;28;20025;-82
2023/12/22 11:20:13;;;;;;;1999.90;999.90;;;5.90;94.30;;;;;;5048733;28;20429;-80
2023/12/22 11:22:39;;;;;;;1999.90;999.90;;;6.00;93.20;;;;;;5046101;28;20021;-81
2023/12/22 11:25:08;;;;;;;1999.90;999.90;;;6.00;93.70;;;;;;5043370;28;20078;-80
2023/12/22 11:27:36;;;;;;;1999.90;999.90;;;6.10;93.80;;;;;;5048775;28;20048;-79
2023/12/22 11:30:04;;;;;;;1999.90;999.90;;;6.00;92.80;;;;;;5030651;28;20037;-80
2023/12/22 11:32:30;;;;;;;1999.90;999.90;;;6.10;93.70;;;;;;5057022;28;20036;-83
2023/12/22 11:34:56;;;;;;;1999.90;999.90;;;6.00;93.40;;;;;;5046009;28;20560;-80
2023/12/22 11:37:24;;;;;;;1999.90;999.90;;;5.90;94.10;;;;;;5046399;28;20028;-81
2023/12/22 11:39:52;;;;;;;1999.90;999.90;;;5.80;94.80;;;;;;5049443;28;20033;-79
2023/12/22 11:42:27;;;;;;;1999.90;999.90;;;5.80;95.10;;;;;;5046061;28;20070;-83
2023/12/22 11:44:55;;;;;;;1999.90;999.90;;;5.80;95.20;;;;;;5047729;28;20025;-83
2023/12/22 11:47:24;;;;;;;1999.90;999.90;;;5.80;95.60;;;;;;5046132;28;20519;-81
2023/12/22 11:49:50;;;;;;;1999.90;999.90;;;5.70;96.30;;;;;;5049038;28;20818;-80
2023/12/22 11:52:25;;;;;;;1999.90;999.90;;;5.70;96.60;;;;;;5049394;28;20037;-80
2023/12/22 11:54:54;;;;;;;1999.90;999.90;;;5.80;96.60;;;;;;5048572;28;20037;-80
2023/12/22 11:57:28;;;;;;;1999.90;999.90;;;5.70;96.30;;;;;;5047731;28;20438;-80
2023/12/22 11:59:56;;;;;;;1999.90;999.90;;;5.70;96.60;;;;;;5047726;28;20057;-83
2023/12/22 12:02:22;;;;;;;1999.90;999.90;;;5.70;98.30;;;;;;5048029;28;20491;-83
2023/12/22 12:04:48;;;;;;;1999.90;999.90;;;5.70;99.70;;;;;;5045795;28;20103;-81
2023/12/22 12:07:47;;;;;;;1999.90;999.90;;;6.20;99.90;;;;;;5045695;28;20593;-81
2023/12/22 12:10:33;;;;;;;1999.90;999.90;;;6.70;99.90;;;;;;5048069;28;20040;-82